sensor_id;sensor_type;location;lat;lon;timestamp;temperature;humidity
11136;DHT22;5622;50.840;4.948;2024-03-23T07:29:48;7.20;99.90
11136;DHT22;5622;50.840;4.948;2024-03-23T11:09:47;10.70;99.90
11136;DHT22;5622;50.840;4.948;2024-03-23T11:15:24;10.40;99.90
11136;DHT22;5622;50.840;4.948;2024-03-23T11:18:05;10.30;99.90
11136;DHT22;5622;50.840;4.948;2024-03-23T11:20:34;10.40;99.90
11136;DHT22;5622;50.840;4.948;2024-03-23T11:23:02;10.40;99.90
11136;DHT22;5622;50.840;4.948;2024-03-23T11:25:30;10.30;99.90
11136;DHT22;5622;50.840;4.948;2024-03-23T11:28:12;10.40;99.90
11136;DHT22;5622;50.840;4.948;2024-03-23T11:34:05;10.40;99.90
11136;DHT22;5622;50.840;4.948;2024-03-23T11:36:32;10.50;99.90
11136;DHT22;5622;50.840;4.948;2024-03-23T11:39:11;10.40;99.90
11136;DHT22;5622;50.840;4.948;2024-03-23T11:41:59;10.60;99.90
11136;DHT22;5622;50.840;4.948;2024-03-23T11:44:28;10.50;99.90
11136;DHT22;5622;50.840;4.948;2024-03-23T11:47:09;10.60;99.90
11136;DHT22;5622;50.840;4.948;2024-03-23T11:49:38;10.60;99.90
11136;DHT22;5622;50.840;4.948;2024-03-23T11:52:07;10.70;99.90
11136;DHT22;5622;50.840;4.948;2024-03-23T11:54:39;10.70;99.90
11136;DHT22;5622;50.840;4.948;2024-03-23T11:57:09;10.80;99.90
11136;DHT22;5622;50.840;4.948;2024-03-23T11:59:37;10.70;99.90
11136;DHT22;5622;50.840;4.948;2024-03-23T12:02:08;10.80;99.90
11136;DHT22;5622;50.840;4.948;2024-03-23T12:04:37;10.80;99.90
11136;DHT22;5622;50.840;4.948;2024-03-23T12:07:13;10.80;99.90
11136;DHT22;5622;50.840;4.948;2024-03-23T12:09:44;10.20;99.90
11136;DHT22;5622;50.840;4.948;2024-03-23T12:12:33;10.60;99.90
11136;DHT22;5622;50.840;4.948;2024-03-23T12:15:06;10.20;99.90
11136;DHT22;5622;50.840;4.948;2024-03-23T12:17:35;10.50;99.90
11136;DHT22;5622;50.840;4.948;2024-03-23T12:20:10;10.50;99.90
11136;DHT22;5622;50.840;4.948;2024-03-23T12:22:43;10.40;99.90
11136;DHT22;5622;50.840;4.948;2024-03-23T12:25:14;10.60;99.90
11136;DHT22;5622;50.840;4.948;2024-03-23T12:27:50;10.50;99.90
11136;DHT22;5622;50.840;4.948;2024-03-23T12:30:19;10.80;99.90
11136;DHT22;5622;50.840;4.948;2024-03-23T12:35:50;10.90;99.90
11136;DHT22;5622;50.840;4.948;2024-03-23T12:38:31;10.80;99.90
11136;DHT22;5622;50.840;4.948;2024-03-23T12:41:01;10.80;99.90
11136;DHT22;5622;50.840;4.948;2024-03-23T12:43:54;10.60;99.90
11136;DHT22;5622;50.840;4.948;2024-03-23T12:46:27;10.60;99.90
11136;DHT22;5622;50.840;4.948;2024-03-23T12:48:58;10.10;99.90
11136;DHT22;5622;50.840;4.948;2024-03-23T12:54:09;10.30;99.90
11136;DHT22;5622;50.840;4.948;2024-03-23T12:56:46;10.10;99.90
11136;DHT22;5622;50.840;4.948;2024-03-23T13:02:26;10.20;99.90
11136;DHT22;5622;50.840;4.948;2024-03-23T13:04:56;10.20;99.90
11136;DHT22;5622;50.840;4.948;2024-03-23T13:07:39;10.20;99.90
11136;DHT22;5622;50.840;4.948;2024-03-23T13:10:21;9.90;99.90
11136;DHT22;5622;50.840;4.948;2024-03-23T13:12:52;9.80;99.90
11136;DHT22;5622;50.840;4.948;2024-03-23T13:15:22;9.60;99.90
11136;DHT22;5622;50.840;4.948;2024-03-23T13:18:26;9.50;99.90
11136;DHT22;5622;50.840;4.948;2024-03-23T13:20:58;10.40;99.90
11136;DHT22;5622;50.840;4.948;2024-03-23T13:23:48;9.60;99.90
11136;DHT22;5622;50.840;4.948;2024-03-23T13:26:33;9.60;99.90
11136;DHT22;5622;50.840;4.948;2024-03-23T13:29:15;9.40;99.90
11136;DHT22;5622;50.840;4.948;2024-03-23T13:32:00;9.80;99.90
11136;DHT22;5622;50.840;4.948;2024-03-23T13:41:27;10.20;99.90
11136;DHT22;5622;50.840;4.948;2024-03-23T13:44:12;10.10;99.90
11136;DHT22;5622;50.840;4.948;2024-03-23T13:46:55;10.10;99.90
11136;DHT22;5622;50.840;4.948;2024-03-23T13:49:38;10.40;99.90
11136;DHT22;5622;50.840;4.948;2024-03-23T13:52:07;10.50;99.90
11136;DHT22;5622;50.840;4.948;2024-03-23T13:54:37;10.50;99.90
11136;DHT22;5622;50.840;4.948;2024-03-23T14:13:46;10.60;99.90
11136;DHT22;5622;50.840;4.948;2024-03-23T14:16:16;10.70;99.90
11136;DHT22;5622;50.840;4.948;2024-03-23T14:19:42;10.60;99.90
11136;DHT22;5622;50.840;4.948;2024-03-23T14:22:37;10.50;99.90
11136;DHT22;5622;50.840;4.948;2024-03-23T14:25:30;10.40;99.90
11136;DHT22;5622;50.840;4.948;2024-03-23T17:43:44;8.40;99.90
11136;DHT22;5622;50.840;4.948;2024-03-23T17:46:13;8.40;99.90
11136;DHT22;5622;50.840;4.948;2024-03-23T17:48:41;8.40;99.90
11136;DHT22;5622;50.840;4.948;2024-03-23T17:51:10;7.40;99.90
11136;DHT22;5622;50.840;4.948;2024-03-23T17:53:52;8.40;99.90
11136;DHT22;5622;50.840;4.948;2024-03-23T17:56:25;8.40;99.90
11136;DHT22;5622;50.840;4.948;2024-03-23T17:59:09;8.40;99.90
11136;DHT22;5622;50.840;4.948;2024-03-23T18:01:50;8.40;99.90
11136;DHT22;5622;50.840;4.948;2024-03-23T18:04:20;8.40;99.90
11136;DHT22;5622;50.840;4.948;2024-03-23T18:06:49;8.40;99.90
11136;DHT22;5622;50.840;4.948;2024-03-23T18:09:32;8.40;99.90
11136;DHT22;5622;50.840;4.948;2024-03-23T18:12:15;8.40;99.90
11136;DHT22;5622;50.840;4.948;2024-03-23T18:27:40;8.40;99.90
11136;DHT22;5622;50.840;4.948;2024-03-23T18:30:28;8.30;99.90
11136;DHT22;5622;50.840;4.948;2024-03-23T18:33:15;8.40;99.90
11136;DHT22;5622;50.840;4.948;2024-03-23T18:35:56;8.40;99.90
11136;DHT22;5622;50.840;4.948;2024-03-23T18:38:43;8.30;99.90
11136;DHT22;5622;50.840;4.948;2024-03-23T18:41:27;8.10;99.90
11136;DHT22;5622;50.840;4.948;2024-03-23T18:47:23;7.70;99.90
11136;DHT22;5622;50.840;4.948;2024-03-23T18:50:11;7.50;99.90
11136;DHT22;5622;50.840;4.948;2024-03-23T18:56:21;7.10;99.90
11136;DHT22;5622;50.840;4.948;2024-03-23T20:27:50;6.00;99.90
11136;DHT22;5622;50.840;4.948;2024-03-23T20:30:34;5.80;99.90
11136;DHT22;5622;50.840;4.948;2024-03-23T20:33:15;5.80;99.90
11136;DHT22;5622;50.840;4.948;2024-03-23T20:36:12;5.80;99.90
11136;DHT22;5622;50.840;4.948;2024-03-23T20:39:09;5.80;99.90
11136;DHT22;5622;50.840;4.948;2024-03-23T20:42:12;5.80;99.90
